Current Weather

Culpeper Rgnl

Culpeper, Virginia (KCJR)

Report from: Tuesday, February 27, 2024 4:55 AM EST
Current time: Tuesday, February 27, 2024 5:24 AM EST

Nearby weather – Weather history – Daily summaries
Weather forecast

Temperature8.7°C (47.7°F)
Dew point4.0°C (39.2°F)
Winds Calm
Visibility10 mi. (16.1 km)
Clouds Sky clear
Altimeter29.96 in.Hg (1015 mB)
Relative humidity72 %
Density altitude-680 ft. (-207 m)
Remarks Fully automated report
Automated weather observing station with precipitation discriminator
Flight conditions Visual Meteorological Conditions
Raw dataKCJR 270955Z AUTO 00000KT 10SM CLR 09/04 A2996 RMK AO2 T00870040
An error has occurred. This application may no longer respond until reloaded. Reload 🗙